sensor_id;sensor_type;location;lat;lon;timestamp;temperature;humidity
13659;DHT22;6902;52.158;11.574;2023-07-08T00:00:59;19.40;99.90
13659;DHT22;6902;52.158;11.574;2023-07-08T00:03:27;19.30;99.90
13659;DHT22;6902;52.158;11.574;2023-07-08T00:38:26;18.70;99.90
13659;DHT22;6902;52.158;11.574;2023-07-08T00:40:59;18.70;99.90
13659;DHT22;6902;52.158;11.574;2023-07-08T01:06:22;18.50;99.90
13659;DHT22;6902;52.158;11.574;2023-07-08T01:11:31;18.00;99.90
13659;DHT22;6902;52.158;11.574;2023-07-08T01:14:02;18.20;99.90
13659;DHT22;6902;52.158;11.574;2023-07-08T01:16:33;18.20;99.90
13659;DHT22;6902;52.158;11.574;2023-07-08T01:19:03;18.10;99.90
13659;DHT22;6902;52.158;11.574;2023-07-08T01:21:37;18.10;99.90
13659;DHT22;6902;52.158;11.574;2023-07-08T01:24:10;18.10;99.90
13659;DHT22;6902;52.158;11.574;2023-07-08T01:26:42;18.10;99.90
13659;DHT22;6902;52.158;11.574;2023-07-08T01:29:13;18.10;99.90
13659;DHT22;6902;52.158;11.574;2023-07-08T01:31:42;18.00;99.90
13659;DHT22;6902;52.158;11.574;2023-07-08T01:34:14;17.90;99.90
13659;DHT22;6902;52.158;11.574;2023-07-08T01:36:47;17.90;99.90
13659;DHT22;6902;52.158;11.574;2023-07-08T01:39:21;17.90;99.90
13659;DHT22;6902;52.158;11.574;2023-07-08T01:41:51;17.80;99.90
13659;DHT22;6902;52.158;11.574;2023-07-08T01:44:28;17.80;99.90
13659;DHT22;6902;52.158;11.574;2023-07-08T01:47:00;17.80;99.90
13659;DHT22;6902;52.158;11.574;2023-07-08T01:49:31;17.70;99.90
13659;DHT22;6902;52.158;11.574;2023-07-08T01:52:03;17.70;99.90
13659;DHT22;6902;52.158;11.574;2023-07-08T01:54:34;17.70;99.90
13659;DHT22;6902;52.158;11.574;2023-07-08T01:57:04;17.70;99.90
13659;DHT22;6902;52.158;11.574;2023-07-08T01:59:33;17.70;99.90
13659;DHT22;6902;52.158;11.574;2023-07-08T02:02:03;17.60;99.90
13659;DHT22;6902;52.158;11.574;2023-07-08T06:49:08;25.30;99.90
13659;DHT22;6902;52.158;11.574;2023-07-08T06:54:08;25.70;99.90
13659;DHT22;6902;52.158;11.574;2023-07-08T06:59:11;26.10;99.90
13659;DHT22;6902;52.158;11.574;2023-07-08T07:01:40;26.30;99.90
13659;DHT22;6902;52.158;11.574;2023-07-08T07:06:37;26.60;99.90
13659;DHT22;6902;52.158;11.574;2023-07-08T07:09:06;26.90;99.90
13659;DHT22;6902;52.158;11.574;2023-07-08T07:11:35;26.90;99.90
13659;DHT22;6902;52.158;11.574;2023-07-08T07:14:06;26.90;99.90
13659;DHT22;6902;52.158;11.574;2023-07-08T07:16:35;27.00;99.90
13659;DHT22;6902;52.158;11.574;2023-07-08T07:19:04;26.90;99.90
13659;DHT22;6902;52.158;11.574;2023-07-08T07:21:33;26.90;99.90
13659;DHT22;6902;52.158;11.574;2023-07-08T07:24:01;27.00;99.90
13659;DHT22;6902;52.158;11.574;2023-07-08T07:26:32;27.20;99.90
13659;DHT22;6902;52.158;11.574;2023-07-08T07:29:02;27.30;99.90
13659;DHT22;6902;52.158;11.574;2023-07-08T07:39:03;27.90;99.90
13659;DHT22;6902;52.158;11.574;2023-07-08T07:41:32;28.20;99.90
13659;DHT22;6902;52.158;11.574;2023-07-08T07:44:01;28.40;99.90
13659;DHT22;6902;52.158;11.574;2023-07-08T07:46:29;28.40;99.90
13659;DHT22;6902;52.158;11.574;2023-07-08T07:49:01;28.40;99.90
13659;DHT22;6902;52.158;11.574;2023-07-08T07:51:30;28.40;99.90
13659;DHT22;6902;52.158;11.574;2023-07-08T08:08:56;29.00;99.90
13659;DHT22;6902;52.158;11.574;2023-07-08T08:13:54;30.00;99.90
13659;DHT22;6902;52.158;11.574;2023-07-08T08:16:23;29.00;99.90
13659;DHT22;6902;52.158;11.574;2023-07-08T08:18:52;29.20;99.90
13659;DHT22;6902;52.158;11.574;2023-07-08T08:21:28;29.20;99.90
13659;DHT22;6902;52.158;11.574;2023-07-08T08:26:28;29.40;99.90
13659;DHT22;6902;52.158;11.574;2023-07-08T08:28:57;29.50;99.90
13659;DHT22;6902;52.158;11.574;2023-07-08T08:33:57;29.70;99.90
13659;DHT22;6902;52.158;11.574;2023-07-08T08:36:28;29.80;99.90
13659;DHT22;6902;52.158;11.574;2023-07-08T08:38:57;29.80;99.90
13659;DHT22;6902;52.158;11.574;2023-07-08T08:41:30;30.00;99.90
13659;DHT22;6902;52.158;11.574;2023-07-08T08:44:00;30.20;99.90
13659;DHT22;6902;52.158;11.574;2023-07-08T08:46:34;30.20;99.90
13659;DHT22;6902;52.158;11.574;2023-07-08T08:49:14;30.20;99.90
13659;DHT22;6902;52.158;11.574;2023-07-08T08:51:47;30.30;99.90
13659;DHT22;6902;52.158;11.574;2023-07-08T08:54:16;30.30;99.90
13659;DHT22;6902;52.158;11.574;2023-07-08T08:56:51;30.30;99.90
13659;DHT22;6902;52.158;11.574;2023-07-08T08:59:27;30.40;99.90
13659;DHT22;6902;52.158;11.574;2023-07-08T09:02:01;30.50;99.90
13659;DHT22;6902;52.158;11.574;2023-07-08T09:04:33;30.60;99.90
13659;DHT22;6902;52.158;11.574;2023-07-08T09:07:20;30.70;99.90
13659;DHT22;6902;52.158;11.574;2023-07-08T09:09:53;30.70;99.90
13659;DHT22;6902;52.158;11.574;2023-07-08T21:11:04;25.80;99.90
13659;DHT22;6902;52.158;11.574;2023-07-08T21:13:35;25.70;99.90
13659;DHT22;6902;52.158;11.574;2023-07-08T21:16:07;25.60;99.90
13659;DHT22;6902;52.158;11.574;2023-07-08T21:18:38;25.50;99.90
13659;DHT22;6902;52.158;11.574;2023-07-08T21:21:08;25.50;99.90
13659;DHT22;6902;52.158;11.574;2023-07-08T21:23:38;25.40;99.90
13659;DHT22;6902;52.158;11.574;2023-07-08T21:26:16;25.40;99.90
13659;DHT22;6902;52.158;11.574;2023-07-08T21:28:47;25.30;99.90
13659;DHT22;6902;52.158;11.574;2023-07-08T21:31:17;25.30;99.90
13659;DHT22;6902;52.158;11.574;2023-07-08T21:33:46;25.20;99.90
13659;DHT22;6902;52.158;11.574;2023-07-08T21:36:21;25.10;99.90
13659;DHT22;6902;52.158;11.574;2023-07-08T21:38:52;25.00;99.90
13659;DHT22;6902;52.158;11.574;2023-07-08T21:41:24;24.90;99.90
13659;DHT22;6902;52.158;11.574;2023-07-08T21:43:53;24.70;99.90
13659;DHT22;6902;52.158;11.574;2023-07-08T21:46:22;24.60;99.90
13659;DHT22;6902;52.158;11.574;2023-07-08T21:48:51;24.50;99.90
13659;DHT22;6902;52.158;11.574;2023-07-08T21:51:24;24.50;99.90
13659;DHT22;6902;52.158;11.574;2023-07-08T21:53:55;24.40;99.90
13659;DHT22;6902;52.158;11.574;2023-07-08T21:56:27;24.40;99.90
13659;DHT22;6902;52.158;11.574;2023-07-08T21:58:56;24.20;99.90
13659;DHT22;6902;52.158;11.574;2023-07-08T22:01:27;23.90;99.90
13659;DHT22;6902;52.158;11.574;2023-07-08T22:03:57;23.80;99.90
13659;DHT22;6902;52.158;11.574;2023-07-08T22:06:26;23.80;99.90
13659;DHT22;6902;52.158;11.574;2023-07-08T22:08:55;23.70;99.90
13659;DHT22;6902;52.158;11.574;2023-07-08T22:11:33;23.70;99.90
13659;DHT22;6902;52.158;11.574;2023-07-08T22:14:02;23.50;99.90
13659;DHT22;6902;52.158;11.574;2023-07-08T22:16:33;23.40;99.90
13659;DHT22;6902;52.158;11.574;2023-07-08T22:19:03;23.30;99.90
13659;DHT22;6902;52.158;11.574;2023-07-08T22:21:34;23.20;99.90
13659;DHT22;6902;52.158;11.574;2023-07-08T22:24:07;23.20;99.90
13659;DHT22;6902;52.158;11.574;2023-07-08T22:26:40;23.00;99.90
13659;DHT22;6902;52.158;11.574;2023-07-08T22:29:10;23.00;99.90
13659;DHT22;6902;52.158;11.574;2023-07-08T22:31:41;22.90;99.90
13659;DHT22;6902;52.158;11.574;2023-07-08T22:34:12;22.90;99.90
13659;DHT22;6902;52.158;11.574;2023-07-08T22:36:41;22.80;99.90
13659;DHT22;6902;52.158;11.574;2023-07-08T22:39:11;22.80;99.90
13659;DHT22;6902;52.158;11.574;2023-07-08T22:41:44;22.70;99.90
13659;DHT22;6902;52.158;11.574;2023-07-08T22:44:15;22.50;99.90
13659;DHT22;6902;52.158;11.574;2023-07-08T22:46:45;22.50;99.90
13659;DHT22;6902;52.158;11.574;2023-07-08T22:49:15;22.50;99.90
13659;DHT22;6902;52.158;11.574;2023-07-08T22:51:50;22.60;99.90
13659;DHT22;6902;52.158;11.574;2023-07-08T22:54:19;22.70;99.90
13659;DHT22;6902;52.158;11.574;2023-07-08T22:56:51;22.60;99.90
13659;DHT22;6902;52.158;11.574;2023-07-08T22:59:19;22.60;99.90
13659;DHT22;6902;52.158;11.574;2023-07-08T23:01:48;22.60;99.90
13659;DHT22;6902;52.158;11.574;2023-07-08T23:04:17;22.60;99.90
13659;DHT22;6902;52.158;11.574;2023-07-08T23:06:46;22.60;99.90
13659;DHT22;6902;52.158;11.574;2023-07-08T23:34:17;22.10;99.90
13659;DHT22;6902;52.158;11.574;2023-07-08T23:36:47;22.10;99.90
13659;DHT22;6902;52.158;11.574;2023-07-08T23:39:18;22.10;99.90
13659;DHT22;6902;52.158;11.574;2023-07-08T23:41:48;22.00;99.90
13659;DHT22;6902;52.158;11.574;2023-07-08T23:44:21;22.00;99.90
